createdAt,value
2017-09-25T00:01:46.711Z,102284.70
2017-09-25T00:04:14.533Z,102286.95
2017-09-25T00:06:42.411Z,102281.57
2017-09-25T00:09:10.247Z,102282.97
2017-09-25T00:11:38.127Z,102278.77
2017-09-25T00:14:05.956Z,102287.75
2017-09-25T00:16:33.845Z,102288.59
2017-09-25T00:19:01.656Z,102280.73
2017-09-25T00:21:29.551Z,102279.09
2017-09-25T00:23:57.272Z,102283.30
2017-09-25T00:26:25.169Z,102280.73
2017-09-25T00:28:52.972Z,102281.42
2017-09-25T00:31:20.825Z,102279.84
2017-09-25T00:33:48.658Z,102284.47
2017-09-25T00:36:16.597Z,102280.12
2017-09-25T00:38:44.445Z,102281.52
2017-09-25T00:41:12.374Z,102276.05
2017-09-25T00:43:40.199Z,102279.04
2017-09-25T00:46:08.075Z,102271.33
2017-09-25T00:48:35.949Z,102270.91
2017-09-25T00:51:03.847Z,102266.28
2017-09-25T00:56:33.817Z,102263.23
2017-09-25T00:59:01.710Z,102267.03
2017-09-25T01:01:41.428Z,102259.31
2017-09-25T01:04:20.969Z,102263.06
2017-09-25T01:06:48.831Z,102264.01
2017-09-25T01:09:16.704Z,102261.92
2017-09-25T01:11:44.621Z,102260.80
2017-09-25T01:14:12.485Z,102256.69
2017-09-25T01:16:40.349Z,102259.39
2017-09-25T01:19:08.191Z,102254.35
2017-09-25T01:21:36.070Z,102257.67
2017-09-25T01:24:03.905Z,102261.92
2017-09-25T01:26:31.772Z,102257.01
2017-09-25T01:28:59.639Z,102246.34
2017-09-25T01:31:27.464Z,102253.69
2017-09-25T01:33:55.360Z,102252.48
2017-09-25T01:36:23.170Z,102246.41
2017-09-25T01:38:51.034Z,102243.65
2017-09-25T01:41:18.949Z,102243.84
2017-09-25T01:43:46.818Z,102245.00
2017-09-25T01:46:14.647Z,102243.94
2017-09-25T01:48:42.513Z,102243.23
2017-09-25T01:51:10.370Z,102237.72
2017-09-25T01:53:38.245Z,102241.50
2017-09-25T01:56:06.095Z,102237.72
2017-09-25T01:58:33.952Z,102234.81
2017-09-25T02:01:02.531Z,102234.30
2017-09-25T02:03:30.431Z,102235.62
2017-09-25T02:05:58.303Z,102232.35
2017-09-25T02:08:26.175Z,102227.02
2017-09-25T02:10:54.035Z,102219.83
2017-09-25T02:13:21.952Z,102221.89
2017-09-25T02:15:49.767Z,102215.39
2017-09-25T02:18:17.642Z,102212.41
2017-09-25T02:20:45.468Z,102211.94
2017-09-25T02:23:13.350Z,102216.34
2017-09-25T02:25:41.179Z,102208.53
2017-09-25T02:28:09.018Z,102211.02
2017-09-25T02:30:36.756Z,102208.56
2017-09-25T02:33:04.687Z,102208.09
2017-09-25T02:35:32.558Z,102205.70
2017-09-25T02:38:00.493Z,102205.96
2017-09-25T02:40:28.243Z,102208.84
2017-09-25T02:42:56.057Z,102209.63
2017-09-25T02:45:23.877Z,102214.34
2017-09-25T02:47:51.744Z,102210.34
2017-09-25T02:50:19.556Z,102208.05
2017-09-25T02:52:47.433Z,102217.23
2017-09-25T02:55:15.254Z,102209.44
2017-09-25T02:57:43.107Z,102211.41
2017-09-25T03:00:10.953Z,102219.70
2017-09-25T03:02:38.806Z,102214.06
2017-09-25T03:05:06.643Z,102206.61
2017-09-25T03:07:34.499Z,102208.44
2017-09-25T03:10:02.333Z,102201.86
2017-09-25T03:12:30.263Z,102197.55
2017-09-25T03:14:58.104Z,102200.56
2017-09-25T03:17:25.962Z,102205.52
2017-09-25T03:19:53.844Z,102201.53
2017-09-25T03:22:21.650Z,102202.66
2017-09-25T03:24:49.533Z,102194.30
2017-09-25T03:27:17.298Z,102194.49
2017-09-25T03:29:45.180Z,102190.53
2017-09-25T03:32:13.035Z,102194.50
2017-09-25T03:34:40.897Z,102198.63
2017-09-25T03:37:08.736Z,102198.65
2017-09-25T03:39:36.597Z,102194.43
2017-09-25T03:42:04.668Z,102198.09
2017-09-25T03:44:32.543Z,102197.64
2017-09-25T03:47:00.351Z,102187.52
2017-09-25T03:49:28.211Z,102189.66
2017-09-25T03:51:56.039Z,102191.00
2017-09-25T03:54:23.906Z,102189.78
2017-09-25T03:56:51.725Z,102190.80
2017-09-25T03:59:19.600Z,102188.78
2017-09-25T04:01:47.422Z,102187.55
2017-09-25T04:04:15.279Z,102184.92
2017-09-25T04:06:43.119Z,102188.12
2017-09-25T04:09:11.009Z,102191.09
2017-09-25T04:11:38.851Z,102190.89
2017-09-25T04:14:06.741Z,102190.89
2017-09-25T04:16:34.573Z,102189.25
2017-09-25T04:19:02.451Z,102188.12
2017-09-25T04:21:30.289Z,102180.63
2017-09-25T04:23:58.086Z,102183.03
2017-09-25T04:26:25.931Z,102186.53
2017-09-25T04:28:53.814Z,102195.67
2017-09-25T04:31:21.630Z,102194.16
2017-09-25T04:33:49.499Z,102194.77
2017-09-25T04:36:17.362Z,102194.34
2017-09-25T04:38:45.256Z,102194.48
2017-09-25T04:41:13.134Z,102202.31
2017-09-25T04:43:41.039Z,102194.92
2017-09-25T04:46:08.858Z,102197.58
2017-09-25T04:48:36.756Z,102198.82
2017-09-25T04:51:04.591Z,102199.42
2017-09-25T04:53:32.519Z,102195.53
2017-09-25T04:56:00.348Z,102203.37
2017-09-25T04:58:28.244Z,102202.98
2017-09-25T05:00:56.072Z,102198.15
2017-09-25T05:03:23.921Z,102199.13
2017-09-25T05:05:51.807Z,102195.77
2017-09-25T05:08:19.615Z,102197.16
2017-09-25T05:10:47.487Z,102192.69
2017-09-25T05:13:15.295Z,102189.78
2017-09-25T05:15:43.161Z,102194.09
2017-09-25T05:18:11.016Z,102198.66
2017-09-25T05:20:38.922Z,102193.04
2017-09-25T05:23:06.749Z,102193.44
2017-09-25T05:25:34.627Z,102197.31
2017-09-25T05:28:02.471Z,102197.16
2017-09-25T05:30:30.365Z,102207.14
2017-09-25T05:32:58.194Z,102206.11
2017-09-25T05:35:26.106Z,102205.78
2017-09-25T05:37:53.927Z,102211.39
2017-09-25T05:40:21.795Z,102210.64
2017-09-25T05:42:49.650Z,102214.03
2017-09-25T05:45:17.433Z,102210.20
2017-09-25T05:47:45.253Z,102213.31
2017-09-25T05:50:13.164Z,102218.38
2017-09-25T05:52:41.016Z,102218.72
2017-09-25T05:55:08.902Z,102217.77
2017-09-25T05:57:36.735Z,102216.51
2017-09-25T06:00:04.659Z,102212.06
2017-09-25T06:02:32.513Z,102216.24
2017-09-25T06:05:00.474Z,102212.59
2017-09-25T06:07:28.306Z,102212.98
2017-09-25T06:09:56.135Z,102210.19
2017-09-25T06:12:23.848Z,102208.92
2017-09-25T06:14:51.686Z,102210.59
2017-09-25T06:17:19.441Z,102208.30
2017-09-25T06:19:47.271Z,102212.63
2017-09-25T06:22:15.025Z,102203.05
2017-09-25T06:24:42.801Z,102207.32
2017-09-25T06:27:10.562Z,102200.20
2017-09-25T06:29:38.427Z,102203.16
2017-09-25T06:32:06.166Z,102201.91
2017-09-25T06:34:33.933Z,102202.59
2017-09-25T06:37:01.687Z,102205.20
2017-09-25T06:39:29.465Z,102205.61
2017-09-25T06:41:57.218Z,102202.66
2017-09-25T06:44:24.952Z,102206.66
2017-09-25T06:46:52.750Z,102201.83
2017-09-25T06:49:20.495Z,102209.09
2017-09-25T06:51:48.276Z,102210.44
2017-09-25T06:54:16.021Z,102209.23
2017-09-25T06:56:43.817Z,102207.95
2017-09-25T06:59:11.580Z,102213.03
2017-09-25T07:01:39.364Z,102206.17
2017-09-25T07:04:07.084Z,102203.48
2017-09-25T07:06:34.861Z,102210.52
2017-09-25T07:09:02.595Z,102212.64
2017-09-25T07:11:30.363Z,102209.86
2017-09-25T07:13:58.111Z,102211.41
2017-09-25T07:16:25.926Z,102210.44
2017-09-25T07:18:53.702Z,102212.33
2017-09-25T07:21:21.508Z,102219.27
2017-09-25T07:23:49.286Z,102214.44
2017-09-25T07:26:17.130Z,102212.49
2017-09-25T07:28:44.891Z,102209.13
2017-09-25T07:31:12.698Z,102205.33
2017-09-25T07:33:40.485Z,102205.92
2017-09-25T07:36:08.267Z,102198.56
2017-09-25T07:38:35.988Z,102196.04
2017-09-25T07:41:03.784Z,102197.28
2017-09-25T07:43:31.515Z,102202.32
2017-09-25T07:45:59.315Z,102207.69
2017-09-25T07:48:27.100Z,102204.30
2017-09-25T07:50:54.919Z,102208.15
2017-09-25T07:53:22.712Z,102205.83
2017-09-25T07:55:50.483Z,102208.05
2017-09-25T07:58:18.215Z,102209.25
2017-09-25T08:00:46.035Z,102204.79
2017-09-25T08:03:13.810Z,102208.20
2017-09-25T08:05:41.622Z,102209.64
2017-09-25T08:08:09.379Z,102216.41
2017-09-25T08:10:37.176Z,102212.70
2017-09-25T08:13:04.943Z,102203.38
2017-09-25T08:15:32.724Z,102203.37
2017-09-25T08:18:00.451Z,102202.87
2017-09-25T08:23:19.938Z,102203.91
2017-09-25T08:25:47.744Z,102202.00
2017-09-25T08:28:15.500Z,102206.33
2017-09-25T08:30:43.291Z,102199.47
2017-09-25T08:33:11.036Z,102194.66
2017-09-25T08:38:16.648Z,102195.47
2017-09-25T08:40:44.427Z,102195.13
2017-09-25T08:43:12.170Z,102195.54
2017-09-25T08:45:39.973Z,102192.36
2017-09-25T08:48:13.301Z,102190.95
2017-09-25T08:50:41.098Z,102190.00
2017-09-25T08:53:08.839Z,102185.30
2017-09-25T08:55:36.686Z,102187.50
2017-09-25T08:58:04.500Z,102186.14
2017-09-25T09:00:32.256Z,102186.25
2017-09-25T09:03:04.200Z,102181.81
2017-09-25T09:05:32.204Z,102183.74
2017-09-25T09:08:00.236Z,102182.45
2017-09-25T09:10:28.005Z,102184.88
2017-09-25T09:12:55.801Z,102187.23
2017-09-25T09:15:23.656Z,102186.28
2017-09-25T09:17:51.502Z,102183.11
2017-09-25T09:20:19.347Z,102185.37
2017-09-25T09:22:47.146Z,102185.04
2017-09-25T09:25:14.893Z,102180.66
2017-09-25T09:27:42.691Z,102179.09
2017-09-25T09:30:10.533Z,102178.30
2017-09-25T09:32:38.417Z,102185.05
2017-09-25T09:35:06.189Z,102183.05
2017-09-25T09:37:34.007Z,102169.80
2017-09-25T09:40:01.733Z,102160.81
2017-09-25T09:42:29.644Z,102167.61
2017-09-25T09:44:57.406Z,102165.96
2017-09-25T09:47:25.191Z,102169.16
2017-09-25T09:49:52.939Z,102168.52
2017-09-25T09:52:20.766Z,102159.89
2017-09-25T09:54:48.489Z,102166.16
2017-09-25T09:57:16.848Z,102151.00
2017-09-25T09:59:47.662Z,102160.05
2017-09-25T10:02:15.506Z,102158.16
2017-09-25T10:04:43.903Z,102157.35
2017-09-25T10:07:11.805Z,102151.90
2017-09-25T10:09:42.337Z,102153.31
2017-09-25T10:12:10.542Z,102151.80
2017-09-25T10:14:39.218Z,102153.33
2017-09-25T10:17:07.130Z,102149.81
2017-09-25T10:19:36.132Z,102146.47
2017-09-25T10:22:05.810Z,102148.84
2017-09-25T10:24:35.401Z,102148.69
2017-09-25T10:27:04.721Z,102153.82
2017-09-25T10:29:35.211Z,102145.66
2017-09-25T10:32:05.901Z,102146.66
2017-09-25T10:34:35.336Z,102145.59
2017-09-25T10:37:04.234Z,102143.89
2017-09-25T10:39:33.258Z,102134.05
2017-09-25T10:42:02.220Z,102142.30
2017-09-25T10:44:31.448Z,102146.13
2017-09-25T10:47:00.789Z,102138.92
2017-09-25T10:49:29.483Z,102138.72
2017-09-25T10:51:59.838Z,102141.00
2017-09-25T10:54:29.441Z,102135.25
2017-09-25T10:57:01.543Z,102136.92
2017-09-25T10:59:30.646Z,102130.80
2017-09-25T11:02:00.158Z,102143.41
2017-09-25T11:04:30.868Z,102136.09
2017-09-25T11:06:58.773Z,102144.88
2017-09-25T11:09:29.458Z,102141.97
2017-09-25T11:11:59.462Z,102142.69
2017-09-25T11:14:30.890Z,102130.69
2017-09-25T11:17:02.882Z,102126.95
2017-09-25T11:19:32.208Z,102129.56
2017-09-25T11:22:00.960Z,102126.54
2017-09-25T11:24:30.787Z,102128.61
2017-09-25T11:27:01.922Z,102124.95
2017-09-25T11:29:30.375Z,102125.84
2017-09-25T11:32:00.467Z,102123.98
2017-09-25T11:34:30.431Z,102113.70
2017-09-25T11:36:58.931Z,102116.73
2017-09-25T11:39:33.363Z,102109.23
2017-09-25T11:42:01.659Z,102106.58
2017-09-25T11:44:32.503Z,102101.39
2017-09-25T11:47:02.540Z,102104.85
2017-09-25T11:49:31.450Z,102106.03
2017-09-25T11:52:00.366Z,102103.09
2017-09-25T11:54:29.902Z,102105.05
2017-09-25T11:56:59.009Z,102105.73
2017-09-25T11:59:26.899Z,102106.74
2017-09-25T12:01:56.406Z,102096.27
2017-09-25T12:04:26.413Z,102106.69
2017-09-25T12:06:55.584Z,102107.06
2017-09-25T12:09:25.657Z,102102.48
2017-09-25T12:11:54.513Z,102106.33
2017-09-25T12:14:23.313Z,102114.46
2017-09-25T12:16:52.434Z,102115.42
2017-09-25T12:19:21.856Z,102112.98
2017-09-25T12:21:54.623Z,102109.05
2017-09-25T12:24:23.564Z,102129.20
2017-09-25T12:26:53.101Z,102145.20
2017-09-25T12:29:23.791Z,102140.34
2017-09-25T12:31:54.123Z,102137.36
2017-09-25T12:34:22.049Z,102136.57
2017-09-25T12:36:52.273Z,102127.70
2017-09-25T12:39:21.986Z,102120.06
2017-09-25T12:41:51.466Z,102120.00
2017-09-25T12:44:20.172Z,102116.53
2017-09-25T12:46:49.678Z,102116.64
2017-09-25T12:49:21.242Z,102108.27
2017-09-25T12:51:55.620Z,102106.67
2017-09-25T12:54:40.356Z,102105.02
2017-09-25T12:59:51.029Z,102101.28
2017-09-25T13:02:20.743Z,102097.72
2017-09-25T13:04:48.938Z,102096.08
2017-09-25T13:07:17.460Z,102100.32
2017-09-25T13:09:45.668Z,102099.42
2017-09-25T13:12:16.104Z,102096.59
2017-09-25T13:14:47.685Z,102098.34
2017-09-25T13:17:15.568Z,102092.09
2017-09-25T13:19:48.996Z,102095.56
2017-09-25T13:22:17.675Z,102096.87
2017-09-25T13:24:46.689Z,102094.05
2017-09-25T13:27:15.319Z,102091.47
2017-09-25T13:29:48.484Z,102092.76
2017-09-25T13:32:21.936Z,102097.55
2017-09-25T13:34:50.324Z,102104.85
2017-09-25T13:37:20.063Z,102097.56
2017-09-25T13:39:48.794Z,102097.48
2017-09-25T13:42:19.623Z,102100.89
2017-09-25T13:47:26.238Z,102096.70
2017-09-25T13:49:55.083Z,102101.86
2017-09-25T13:52:23.876Z,102097.69
2017-09-25T13:54:55.388Z,102093.70
2017-09-25T13:57:24.340Z,102090.76
2017-09-25T14:02:27.145Z,102097.12
2017-09-25T14:04:56.879Z,102093.52
2017-09-25T14:07:26.788Z,102089.95
2017-09-25T14:09:55.318Z,102091.52
2017-09-25T14:12:24.613Z,102089.25
2017-09-25T14:14:54.470Z,102090.51
2017-09-25T14:20:01.894Z,102093.16
2017-09-25T14:22:32.247Z,102093.97
2017-09-25T14:30:54.560Z,102098.22
2017-09-25T14:39:12.992Z,102107.52
2017-09-25T14:47:40.830Z,102112.06
2017-09-25T14:50:25.701Z,102107.80
2017-09-25T15:01:51.765Z,102122.56
2017-09-25T15:04:34.462Z,102124.65
2017-09-25T15:07:22.635Z,102128.42
2017-09-25T15:15:33.095Z,102130.79
2017-09-25T15:37:25.937Z,102143.52
2017-09-25T15:42:55.213Z,102147.14
2017-09-25T15:56:25.506Z,102140.35
2017-09-25T15:58:56.020Z,102145.92
2017-09-25T16:01:24.247Z,102145.69
2017-09-25T16:03:54.627Z,102143.03
2017-09-25T16:06:27.003Z,102145.63
2017-09-25T16:08:56.574Z,102147.28
2017-09-25T16:11:25.639Z,102150.58
2017-09-25T16:13:53.832Z,102154.44
2017-09-25T16:16:23.704Z,102151.42
2017-09-25T16:18:52.158Z,102163.20
2017-09-25T16:21:23.552Z,102163.20
2017-09-25T16:23:58.412Z,102158.76
2017-09-25T16:26:27.154Z,102160.70
2017-09-25T16:28:56.114Z,102158.05
2017-09-25T16:31:26.626Z,102164.59
2017-09-25T16:34:04.219Z,102165.37
2017-09-25T16:36:40.573Z,102165.13
2017-09-25T16:39:23.610Z,102172.03
2017-09-25T16:41:53.770Z,102168.66
2017-09-25T16:44:31.221Z,102178.69
2017-09-25T16:49:43.262Z,102181.36
2017-09-25T16:52:17.324Z,102179.27
2017-09-25T17:00:22.434Z,102185.80
2017-09-25T17:02:50.903Z,102190.02
2017-09-25T17:05:19.779Z,102196.22
2017-09-25T17:07:49.267Z,102197.58
2017-09-25T17:10:18.234Z,102205.86
2017-09-25T17:13:00.657Z,102205.92
2017-09-25T17:15:29.507Z,102207.11
2017-09-25T17:18:01.237Z,102204.22
2017-09-25T17:20:29.412Z,102205.52
2017-09-25T17:22:59.544Z,102208.00
2017-09-25T17:25:30.236Z,102208.61
2017-09-25T17:28:00.738Z,102208.56
2017-09-25T17:30:28.763Z,102203.52
2017-09-25T17:33:00.061Z,102206.56
2017-09-25T17:35:30.503Z,102208.81
2017-09-25T17:38:00.802Z,102206.94
2017-09-25T17:40:30.621Z,102207.21
2017-09-25T17:43:05.316Z,102209.03
2017-09-25T17:45:33.562Z,102218.57
2017-09-25T17:48:03.618Z,102214.55
2017-09-25T17:50:35.745Z,102222.21
2017-09-25T17:53:03.929Z,102223.98
2017-09-25T17:55:31.696Z,102224.55
2017-09-25T17:57:59.518Z,102219.09
2017-09-25T18:00:27.318Z,102218.01
2017-09-25T18:02:58.350Z,102220.39
2017-09-25T18:05:26.196Z,102227.50
2017-09-25T18:07:54.051Z,102222.16
2017-09-25T18:10:21.834Z,102226.37
2017-09-25T18:12:49.644Z,102220.86
2017-09-25T18:15:17.565Z,102218.62
2017-09-25T18:17:47.776Z,102224.56
2017-09-25T18:20:15.663Z,102220.50
2017-09-25T18:22:43.459Z,102220.21
2017-09-25T18:25:11.208Z,102230.30
2017-09-25T18:27:39.031Z,102230.48
2017-09-25T18:30:06.837Z,102234.23
2017-09-25T18:32:34.608Z,102233.81
2017-09-25T18:35:02.440Z,102232.39
2017-09-25T18:37:30.331Z,102234.50
2017-09-25T18:39:58.205Z,102241.70
2017-09-25T18:42:26.126Z,102244.70
2017-09-25T18:44:53.962Z,102250.59
2017-09-25T18:47:21.841Z,102247.02
2017-09-25T18:49:49.671Z,102251.09
2017-09-25T18:52:17.563Z,102251.41
2017-09-25T18:54:45.425Z,102252.11
2017-09-25T18:57:13.364Z,102256.84
2017-09-25T18:59:41.208Z,102259.31
2017-09-25T19:02:09.043Z,102258.34
2017-09-25T19:04:36.963Z,102258.19
2017-09-25T19:07:04.724Z,102254.13
2017-09-25T19:09:32.651Z,102260.91
2017-09-25T19:12:00.478Z,102259.92
2017-09-25T19:14:28.335Z,102263.39
2017-09-25T19:16:56.151Z,102260.73
2017-09-25T19:19:24.074Z,102255.86
2017-09-25T19:21:51.913Z,102254.04
2017-09-25T19:24:20.062Z,102261.09
2017-09-25T19:26:47.898Z,102259.59
2017-09-25T19:29:15.774Z,102261.56
2017-09-25T19:31:43.645Z,102259.46
2017-09-25T19:34:11.544Z,102265.24
2017-09-25T19:36:39.423Z,102262.58
2017-09-25T19:39:07.250Z,102268.93
2017-09-25T19:41:35.146Z,102264.45
2017-09-25T19:44:03.065Z,102269.17
2017-09-25T19:46:30.989Z,102265.95
2017-09-25T19:49:10.713Z,102269.49
2017-09-25T19:51:38.623Z,102269.22
2017-09-25T19:54:08.510Z,102270.76
2017-09-25T19:59:38.732Z,102268.80
2017-09-25T20:02:06.640Z,102270.52
2017-09-25T20:04:34.529Z,102270.84
2017-09-25T20:07:12.087Z,102269.44
2017-09-25T20:09:40.011Z,102263.97
2017-09-25T20:12:07.908Z,102267.48
2017-09-25T20:14:38.817Z,102269.06
2017-09-25T20:17:17.292Z,102268.22
2017-09-25T20:19:45.311Z,102271.13
2017-09-25T20:22:13.169Z,102269.06
2017-09-25T20:24:41.051Z,102263.70
2017-09-25T20:27:08.917Z,102271.86
2017-09-25T20:29:36.823Z,102272.32
2017-09-25T20:32:04.653Z,102264.44
2017-09-25T20:34:32.552Z,102271.44
2017-09-25T20:37:00.515Z,102271.20
2017-09-25T20:39:28.504Z,102271.81
2017-09-25T20:41:58.759Z,102264.56
2017-09-25T20:44:27.980Z,102269.89
2017-09-25T20:46:55.826Z,102263.91
2017-09-25T20:49:23.718Z,102259.19
2017-09-25T20:51:51.569Z,102265.85
2017-09-25T20:54:19.475Z,102256.92
2017-09-25T20:56:47.352Z,102258.69
2017-09-25T20:59:15.243Z,102265.34
2017-09-25T21:01:43.073Z,102257.66
2017-09-25T21:04:10.856Z,102264.78
2017-09-25T21:06:38.695Z,102267.63
2017-09-25T21:09:06.581Z,102271.27
2017-09-25T21:11:34.431Z,102266.16
2017-09-25T21:14:02.393Z,102271.55
2017-09-25T21:16:30.250Z,102277.52
2017-09-25T21:18:58.139Z,102277.59
2017-09-25T21:21:25.933Z,102274.86
2017-09-25T21:23:53.872Z,102273.83
2017-09-25T21:26:22.595Z,102280.55
2017-09-25T21:28:50.490Z,102285.02
2017-09-25T21:31:18.349Z,102277.05
2017-09-25T21:33:46.224Z,102275.51
2017-09-25T21:36:14.071Z,102282.75
2017-09-25T21:38:41.954Z,102279.78
2017-09-25T21:41:09.890Z,102281.81
2017-09-25T21:43:37.748Z,102283.60
2017-09-25T21:46:05.624Z,102280.18
2017-09-25T21:48:33.445Z,102287.67
2017-09-25T21:51:01.328Z,102278.09
2017-09-25T21:53:29.135Z,102278.89
2017-09-25T21:55:57.038Z,102279.94
2017-09-25T21:58:24.771Z,102279.06
2017-09-25T22:00:52.662Z,102276.23
2017-09-25T22:03:20.523Z,102277.42
2017-09-25T22:05:48.411Z,102274.48
2017-09-25T22:08:16.234Z,102275.32
2017-09-25T22:10:44.093Z,102279.10
2017-09-25T22:13:11.924Z,102273.39
2017-09-25T22:15:39.794Z,102278.58
2017-09-25T22:18:07.540Z,102276.90
2017-09-25T22:20:35.425Z,102277.87
2017-09-25T22:23:03.251Z,102280.67
2017-09-25T22:25:31.125Z,102277.42
2017-09-25T22:27:58.945Z,102278.82
2017-09-25T22:30:26.843Z,102272.24
2017-09-25T22:32:54.790Z,102274.34
2017-09-25T22:35:22.701Z,102269.02
2017-09-25T22:37:50.696Z,102275.50
2017-09-25T22:40:18.638Z,102274.83
2017-09-25T22:42:46.591Z,102272.45
2017-09-25T22:45:14.529Z,102279.45
2017-09-25T22:47:42.366Z,102274.23
2017-09-25T22:50:10.272Z,102277.98
2017-09-25T22:52:38.181Z,102277.59
2017-09-25T22:55:06.102Z,102275.18
2017-09-25T22:57:33.979Z,102275.64
2017-09-25T23:00:01.918Z,102272.45
2017-09-25T23:02:29.810Z,102278.16
2017-09-25T23:08:05.846Z,102275.81
2017-09-25T23:10:33.762Z,102274.13
2017-09-25T23:13:01.654Z,102276.27
2017-09-25T23:15:29.522Z,102273.19
2017-09-25T23:17:57.413Z,102273.47
2017-09-25T23:20:25.265Z,102266.61
2017-09-25T23:22:53.107Z,102270.81
2017-09-25T23:25:21.054Z,102265.95
2017-09-25T23:27:48.927Z,102270.28
2017-09-25T23:30:28.453Z,102275.61
2017-09-25T23:32:56.322Z,102267.34
2017-09-25T23:35:24.206Z,102269.86
2017-09-25T23:37:52.019Z,102265.73
2017-09-25T23:40:19.874Z,102264.41
2017-09-25T23:42:47.755Z,102261.32
2017-09-25T23:45:15.613Z,102252.88
2017-09-25T23:47:43.435Z,102262.05
2017-09-25T23:50:11.355Z,102264.98
2017-09-25T23:52:39.181Z,102256.38
2017-09-25T23:55:07.077Z,102261.13
2017-09-25T23:57:34.898Z,102259.84
